Time;durP1;ratioP1;P1;durP2;ratioP2;P2;SDS_P1;SDS_P2;PMS_P1;PMS_P2;Temp;Humidity;BMP_temperature;BMP_pressure;BME280_temperature;BME280_humidity;BME280_pressure;Samples;Min_cycle;Max_cycle;Signal;HPM_P1;HPM_P2
2022/06/18 00:09:33;;;;;;;2.10;1.60;;;20.70;62.70;;;;;;20916189;28;20238;-69
2022/06/18 00:19:35;;;;;;;4.53;1.73;;;20.50;63.40;;;;;;20915011;28;20269;-68
2022/06/18 00:29:37;;;;;;;4.07;1.70;;;20.40;63.90;;;;;;20913224;28;20305;-66
2022/06/18 00:39:39;;;;;;;2.53;1.77;;;20.30;64.10;;;;;;20913563;28;20660;-67
2022/06/18 00:49:55;;;;;;;4.37;1.70;;;20.20;64.60;;;;;;20941083;28;20269;-67
2022/06/18 01:00:02;;;;;;;4.17;1.87;;;20.10;65.20;;;;;;20929919;28;20214;-70
2022/06/18 01:10:12;;;;;;;5.93;1.93;;;20.00;66.00;;;;;;20914622;28;20721;-67
2022/06/18 01:20:14;;;;;;;2.00;1.70;;;19.80;66.90;;;;;;20912478;28;20213;-66
2022/06/18 01:30:20;;;;;;;2.00;1.70;;;19.70;67.60;;;;;;20911443;28;20562;-67
2022/06/18 01:40:39;;;;;;;3.80;1.90;;;19.60;67.90;;;;;;20911149;28;20593;-67
2022/06/18 01:50:57;;;;;;;1.93;1.70;;;19.50;68.20;;;;;;20911225;28;20241;-70
2022/06/18 02:01:03;;;;;;;4.30;1.70;;;19.50;68.60;;;;;;20925916;28;20214;-69
2022/06/18 02:11:07;;;;;;;2.10;1.70;;;19.40;69.10;;;;;;20925389;28;20589;-67
2022/06/18 02:21:13;;;;;;;4.20;1.63;;;19.30;69.30;;;;;;20923743;28;20708;-67
2022/06/18 02:31:23;;;;;;;2.63;1.83;;;19.10;69.80;;;;;;20923648;28;20611;-68
2022/06/18 02:41:26;;;;;;;1.90;1.70;;;18.90;70.10;;;;;;20921692;28;20328;-66
2022/06/18 02:51:30;;;;;;;2.27;1.57;;;18.70;70.60;;;;;;20922382;28;20592;-67
2022/06/18 03:01:33;;;;;;;1.97;1.70;;;18.70;71.00;;;;;;20922410;28;20211;-67
2022/06/18 03:22:07;;;;;;;5.40;2.00;;;18.40;71.60;;;;;;20921234;28;20212;-65
2022/06/18 03:32:09;;;;;;;3.83;1.80;;;18.20;71.90;;;;;;20919236;28;20594;-67
2022/06/18 03:42:11;;;;;;;4.70;2.23;;;18.20;72.00;;;;;;20918073;28;20236;-66
2022/06/18 03:52:12;;;;;;;2.43;1.60;;;18.20;71.90;;;;;;20916250;28;20240;-66
2022/06/18 04:02:14;;;;;;;3.63;1.97;;;18.10;72.40;;;;;;20916284;28;20207;-65
2022/06/18 04:12:17;;;;;;;3.83;2.00;;;18.10;72.80;;;;;;20915873;28;20233;-65
2022/06/18 04:22:19;;;;;;;2.20;1.80;;;18.10;73.20;;;;;;20915508;28;20211;-64
2022/06/18 04:32:20;;;;;;;3.13;2.10;;;18.20;73.50;;;;;;20914722;28;20766;-65
2022/06/18 04:42:22;;;;;;;4.20;2.50;;;18.20;73.70;;;;;;20915704;28;20239;-67
2022/06/18 04:52:25;;;;;;;5.30;3.77;;;18.30;74.00;;;;;;20913978;28;20238;-68
2022/06/18 05:02:30;;;;;;;4.13;2.43;;;18.40;74.10;;;;;;20912440;28;20201;-65
2022/06/18 05:12:32;;;;;;;3.70;2.20;;;18.60;74.20;;;;;;20911753;28;20240;-73
2022/06/18 05:22:34;;;;;;;5.10;2.90;;;18.90;74.20;;;;;;20910757;28;20301;-71
2022/06/18 05:32:36;;;;;;;6.13;4.27;;;19.00;74.00;;;;;;20923193;28;20241;-68
2022/06/18 05:42:37;;;;;;;3.23;2.20;;;19.20;73.10;;;;;;20934964;28;20230;-69
2022/06/18 05:52:40;;;;;;;2.23;2.03;;;19.50;72.50;;;;;;20946942;28;20242;-68
2022/06/18 06:02:41;;;;;;;6.93;2.00;;;19.80;71.70;;;;;;20933504;28;20215;-66
2022/06/18 06:12:43;;;;;;;4.13;2.40;;;20.10;70.80;;;;;;20936870;28;20291;-66
2022/06/18 06:22:45;;;;;;;5.80;2.40;;;20.30;70.30;;;;;;20925196;28;20208;-65
2022/06/18 06:32:47;;;;;;;4.53;2.30;;;20.60;69.70;;;;;;20922391;28;20234;-76
2022/06/18 06:42:51;;;;;;;7.43;2.20;;;20.90;69.00;;;;;;20921601;28;20224;-72
2022/06/18 06:52:53;;;;;;;7.50;2.10;;;21.20;68.30;;;;;;20920720;28;20231;-71
2022/06/18 07:02:54;;;;;;;4.07;2.57;;;21.60;67.60;;;;;;20921015;28;20204;-73
2022/06/18 07:13:02;;;;;;;5.47;2.10;;;21.90;66.80;;;;;;20920205;28;20258;-72
2022/06/18 07:23:03;;;;;;;6.73;2.00;;;22.20;65.70;;;;;;20919735;28;20262;-70
2022/06/18 07:33:05;;;;;;;3.27;2.03;;;22.50;64.80;;;;;;20918522;28;20240;-67
2022/06/18 07:43:08;;;;;;;2.93;2.27;;;22.80;64.30;;;;;;20917781;28;20243;-72
2022/06/18 07:53:21;;;;;;;4.53;2.00;;;23.10;64.90;;;;;;20917134;28;20243;-63
2022/06/18 08:03:24;;;;;;;4.30;2.47;;;23.30;64.00;;;;;;20916294;28;20208;-70
2022/06/18 08:13:26;;;;;;;7.63;2.30;;;23.60;64.00;;;;;;20915531;28;20238;-69
2022/06/18 08:23:28;;;;;;;4.97;3.50;;;23.90;63.90;;;;;;20915539;28;20214;-70
2022/06/18 08:33:30;;;;;;;12.43;3.90;;;24.20;64.80;;;;;;20914548;28;20657;-72
2022/06/18 08:43:50;;;;;;;23.03;4.87;;;23.60;80.10;;;;;;20913574;28;20311;-69
2022/06/18 08:53:55;;;;;;;7.70;3.17;;;23.70;90.30;;;;;;20913186;28;20231;-63
2022/06/18 09:04:25;;;;;;;7.90;4.83;;;23.70;92.30;;;;;;20915154;28;20200;-67
2022/06/18 09:14:41;;;;;;;11.43;4.43;;;24.10;94.00;;;;;;20919026;28;20238;-69
2022/06/18 09:24:50;;;;;;;15.27;4.77;;;24.50;93.80;;;;;;20916401;28;20210;-73
2022/06/18 09:35:14;;;;;;;7.40;3.07;;;25.00;92.60;;;;;;20914058;28;20239;-67
2022/06/18 09:45:21;;;;;;;2.77;1.90;;;25.30;92.10;;;;;;20915195;28;20240;-69
2022/06/18 09:55:57;;;;;;;101.30;18.47;;;26.10;89.40;;;;;;20924270;28;20208;-71
2022/06/18 10:16:38;;;;;;;2.70;2.00;;;26.60;85.20;;;;;;20928364;28;20215;-64
2022/06/18 10:27:10;;;;;;;5.33;2.50;;;26.90;78.30;;;;;;20938034;28;20228;-66
2022/06/18 10:37:16;;;;;;;7.73;2.53;;;26.80;79.50;;;;;;20931841;28;20234;-68
2022/06/18 10:47:42;;;;;;;5.90;2.30;;;26.90;75.80;;;;;;20958141;28;20247;-68
2022/06/18 10:57:44;;;;;;;7.70;2.60;;;26.90;75.20;;;;;;20935936;28;20603;-71
2022/06/18 11:07:49;;;;;;;6.03;2.20;;;27.20;68.80;;;;;;20931661;28;20254;-71
2022/06/18 11:17:51;;;;;;;6.85;2.20;;;27.70;58.70;;;;;;20928735;28;20678;-69
2022/06/18 11:27:59;;;;;;;17.77;2.65;;;28.30;54.20;;;;;;20934788;28;20227;-75
2022/06/18 11:38:20;;;;;;;5.53;2.30;;;28.60;52.20;;;;;;20924278;28;20704;-71
2022/06/18 11:48:27;;;;;;;6.93;2.70;;;28.80;51.10;;;;;;20920056;28;20251;-71
2022/06/18 11:58:47;;;;;;;15.10;4.03;;;29.10;49.90;;;;;;20919542;28;20561;-72
2022/06/18 12:08:49;;;;;;;11.05;2.38;;;29.40;48.10;;;;;;20918239;28;20642;-72
2022/06/18 12:18:53;;;;;;;9.57;2.45;;;29.60;46.90;;;;;;20917340;28;20659;-72
2022/06/18 12:29:10;;;;;;;9.60;2.70;;;30.00;45.70;;;;;;20916385;28;20278;-70
2022/06/18 12:39:15;;;;;;;9.68;2.70;;;30.30;44.70;;;;;;20914353;28;20326;-72
2022/06/18 12:49:36;;;;;;;15.68;2.80;;;30.40;44.00;;;;;;20914388;28;20231;-70
2022/06/18 12:59:41;;;;;;;10.35;2.75;;;30.50;43.40;;;;;;20913216;28;20619;-69
2022/06/18 13:10:03;;;;;;;8.57;2.72;;;30.60;42.80;;;;;;20912294;28;20277;-71
2022/06/18 13:20:20;;;;;;;11.93;2.95;;;30.70;42.40;;;;;;20912236;28;20214;-71
2022/06/18 13:30:37;;;;;;;14.60;2.80;;;30.70;42.50;;;;;;20911502;28;20289;-73
2022/06/18 13:41:11;;;;;;;11.35;2.67;;;30.80;42.30;;;;;;20911067;28;20239;-71
2022/06/18 13:51:33;;;;;;;17.08;3.15;;;30.80;41.90;;;;;;20919203;28;20235;-71
2022/06/18 14:01:51;;;;;;;13.02;3.72;;;31.00;41.80;;;;;;20926206;28;20667;-70
2022/06/18 14:12:03;;;;;;;14.30;3.20;;;31.10;41.40;;;;;;20925504;28;20691;-70
2022/06/18 14:22:16;;;;;;;13.45;3.38;;;31.20;40.80;;;;;;20926289;28;20246;-70
2022/06/18 14:32:42;;;;;;;13.52;3.50;;;31.40;40.70;;;;;;20923935;28;20239;-71
2022/06/18 14:43:38;;;;;;;17.55;3.67;;;31.50;40.10;;;;;;20923334;28;20227;-70
2022/06/18 14:54:13;;;;;;;17.73;3.50;;;31.40;39.70;;;;;;20896014;28;20242;-69
2022/06/18 15:04:23;;;;;;;16.23;3.47;;;31.60;39.30;;;;;;20921034;28;20212;-70
2022/06/18 15:14:28;;;;;;;19.65;3.50;;;31.90;39.50;;;;;;20920476;28;20236;-70
2022/06/18 15:35:04;;;;;;;21.40;3.58;;;32.00;38.00;;;;;;20919616;28;20285;-73
2022/06/18 15:45:19;;;;;;;14.63;2.95;;;31.90;38.00;;;;;;20919622;28;20627;-72
2022/06/18 15:55:29;;;;;;;18.30;3.63;;;32.00;37.70;;;;;;20950728;28;20721;-73
2022/06/18 16:05:34;;;;;;;18.08;3.30;;;32.50;37.50;;;;;;20917992;28;20211;-70
2022/06/18 16:15:38;;;;;;;14.15;3.40;;;32.80;37.00;;;;;;20916717;28;20236;-70
2022/06/18 16:25:45;;;;;;;16.48;3.40;;;33.20;36.80;;;;;;20915544;28;20203;-71
2022/06/18 16:36:10;;;;;;;23.15;4.13;;;32.90;36.80;;;;;;20915213;28;20243;-70
2022/06/18 16:46:21;;;;;;;22.27;3.00;;;32.30;37.20;;;;;;20914547;28;20242;-69
2022/06/18 16:56:23;;;;;;;15.48;3.78;;;32.00;37.70;;;;;;20914045;28;20260;-70
2022/06/18 17:06:24;;;;;;;24.17;5.10;;;31.70;37.90;;;;;;20921548;28;20223;-71
2022/06/18 17:16:26;;;;;;;28.50;6.70;;;31.60;38.30;;;;;;20928280;28;20282;-70
2022/06/18 17:36:48;;;;;;;13.50;3.78;;;31.30;39.40;;;;;;20929451;28;20262;-72
2022/06/18 17:46:50;;;;;;;27.10;4.47;;;31.20;40.10;;;;;;20909266;28;20243;-66
2022/06/18 17:56:52;;;;;;;20.10;4.35;;;30.90;44.40;;;;;;20927372;28;20204;-72
2022/06/18 18:06:56;;;;;;;24.73;4.70;;;29.90;49.60;;;;;;20922743;28;20255;-67
2022/06/18 18:16:59;;;;;;;20.83;9.35;;;29.30;50.00;;;;;;20922498;28;20212;-70
2022/06/18 18:27:10;;;;;;;19.60;9.38;;;29.30;49.00;;;;;;20924443;28;20224;-64
2022/06/18 18:37:17;;;;;;;22.13;5.53;;;29.30;48.70;;;;;;20923670;28;20204;-64
2022/06/18 18:47:19;;;;;;;20.05;5.05;;;29.10;49.10;;;;;;20922444;28;20254;-70
2022/06/18 18:57:21;;;;;;;10.50;3.40;;;28.90;49.90;;;;;;20921552;28;20655;-64
2022/06/18 19:07:23;;;;;;;14.27;3.80;;;28.70;50.70;;;;;;20920887;28;20242;-65
2022/06/18 19:17:25;;;;;;;12.82;4.00;;;28.10;52.00;;;;;;20920610;28;20200;-67
2022/06/18 19:27:26;;;;;;;11.80;4.00;;;27.70;53.00;;;;;;20918297;28;20285;-64
2022/06/18 19:37:28;;;;;;;17.40;5.40;;;27.40;53.90;;;;;;20919175;28;20219;-69
2022/06/18 19:47:30;;;;;;;12.33;4.80;;;27.10;55.10;;;;;;20916886;28;20715;-72
2022/06/18 19:57:32;;;;;;;12.97;4.60;;;26.90;55.30;;;;;;20917848;28;20254;-77
2022/06/18 20:07:34;;;;;;;17.40;4.60;;;26.70;55.90;;;;;;20916300;28;20234;-66
2022/06/18 20:17:36;;;;;;;18.80;4.57;;;26.50;56.70;;;;;;20916476;28;20200;-70
2022/06/18 20:27:38;;;;;;;12.80;4.83;;;26.30;57.30;;;;;;20915058;28;20303;-65
2022/06/18 20:37:40;;;;;;;13.43;4.50;;;26.20;57.80;;;;;;20914510;28;20790;-68
2022/06/18 20:47:42;;;;;;;14.37;4.57;;;26.10;58.60;;;;;;20913671;28;20244;-72
2022/06/18 20:57:44;;;;;;;15.10;4.47;;;25.90;59.00;;;;;;20915707;28;20659;-75
2022/06/18 21:07:48;;;;;;;15.77;4.60;;;25.80;59.30;;;;;;20917886;28;20293;-73
2022/06/18 21:17:50;;;;;;;25.30;6.53;;;25.80;59.50;;;;;;20912201;28;20208;-74
2022/06/18 21:27:53;;;;;;;14.43;4.10;;;25.70;59.60;;;;;;20917612;28;20239;-78
2022/06/18 21:37:55;;;;;;;17.07;4.77;;;25.70;59.80;;;;;;20958789;28;20203;-79
2022/06/18 21:47:57;;;;;;;17.30;4.57;;;25.60;60.10;;;;;;20949727;28;20243;-68
2022/06/18 21:58:01;;;;;;;17.63;5.40;;;25.50;60.70;;;;;;20910590;28;21058;-61
2022/06/18 22:08:06;;;;;;;22.27;4.93;;;25.50;61.40;;;;;;20980581;28;20288;-79
2022/06/18 22:18:08;;;;;;;17.50;5.43;;;25.30;61.90;;;;;;21009159;28;20211;-75
2022/06/18 22:28:11;;;;;;;19.27;4.53;;;25.20;62.30;;;;;;21007110;28;20231;-70
2022/06/18 22:38:20;;;;;;;11.93;4.43;;;25.20;62.80;;;;;;21006851;28;20203;-60
2022/06/18 22:48:22;;;;;;;14.43;4.07;;;25.10;63.20;;;;;;21006718;28;20235;-61
2022/06/18 22:58:23;;;;;;;19.77;4.90;;;24.90;63.80;;;;;;21012138;28;20207;-75
2022/06/18 23:08:26;;;;;;;19.93;3.97;;;24.80;64.60;;;;;;21005334;28;20227;-73
2022/06/18 23:18:28;;;;;;;22.07;4.93;;;24.70;65.10;;;;;;21003952;28;20199;-72
2022/06/18 23:28:29;;;;;;;12.40;4.60;;;24.50;65.50;;;;;;21002067;28;20235;-73
2022/06/18 23:38:34;;;;;;;15.53;4.00;;;24.40;66.30;;;;;;21001982;28;20200;-76
2022/06/18 23:48:36;;;;;;;10.77;3.63;;;24.20;67.60;;;;;;21001301;28;20721;-78
2022/06/18 23:58:40;;;;;;;16.27;4.13;;;24.10;68.70;;;;;;21000150;28;20655;-75
